Aviation Digital Data Service (ADDS)

Output produced by METARs form (1908 UTC 22 May 2015)
found at http://aviationweather.gov/adds/metars/
 
METAR text: KBFM 221853Z 05006KT 10SM CLR 26/14 A3018 RMK AO2 SLP218 T02560144
Conditions at: KBFM (MOBILE/BROOKLEY , AL, US) observed 1853 UTC 22 May 2015
Temperature: 25.6°C (78°F)
Dewpoint: 14.4°C (58°F) [RH = 50%]
Pressure (altimeter): 30.18 inches Hg (1022.1 mb)
[Sea-level pressure: 1021.8 mb]
Winds: from the NE (50 degrees) at 7 MPH (6 knots; 3.1 m/s)
Visibility: 10 or more miles (16+ km)
Ceiling: at least 12,000 feet AGL
Clouds: sky clear below 12,000 feet AGL
Weather: no significant weather observed at this time